sensor_id;sensor_type;location;lat;lon;timestamp;P1;durP1;ratioP1;P2;durP2;ratioP2
31808;SDS011;18379;48.208;-1.518;2024-02-23T00:02:59;12.43;;;11.23;;
31808;SDS011;18379;48.208;-1.518;2024-02-23T00:08:00;13.40;;;11.27;;
31808;SDS011;18379;48.208;-1.518;2024-02-23T00:13:01;12.67;;;10.23;;
31808;SDS011;18379;48.208;-1.518;2024-02-23T00:18:02;15.27;;;11.23;;
31808;SDS011;18379;48.208;-1.518;2024-02-23T00:23:04;18.67;;;11.40;;
31808;SDS011;18379;48.208;-1.518;2024-02-23T00:28:04;10.93;;;9.83;;
31808;SDS011;18379;48.208;-1.518;2024-02-23T00:33:05;11.67;;;10.43;;
31808;SDS011;18379;48.208;-1.518;2024-02-23T00:38:06;12.80;;;10.20;;
31808;SDS011;18379;48.208;-1.518;2024-02-23T00:43:07;12.10;;;10.70;;
31808;SDS011;18379;48.208;-1.518;2024-02-23T00:48:08;11.53;;;10.40;;
31808;SDS011;18379;48.208;-1.518;2024-02-23T00:53:09;20.67;;;10.67;;
31808;SDS011;18379;48.208;-1.518;2024-02-23T00:58:09;13.40;;;10.53;;
31808;SDS011;18379;48.208;-1.518;2024-02-23T01:03:10;11.97;;;10.67;;
31808;SDS011;18379;48.208;-1.518;2024-02-23T01:08:11;13.47;;;9.60;;
31808;SDS011;18379;48.208;-1.518;2024-02-23T01:13:11;14.07;;;10.10;;
31808;SDS011;18379;48.208;-1.518;2024-02-23T01:18:12;14.37;;;10.13;;
31808;SDS011;18379;48.208;-1.518;2024-02-23T01:23:13;14.43;;;9.67;;
31808;SDS011;18379;48.208;-1.518;2024-02-23T01:28:13;15.33;;;10.87;;
31808;SDS011;18379;48.208;-1.518;2024-02-23T01:33:14;11.93;;;10.27;;
31808;SDS011;18379;48.208;-1.518;2024-02-23T01:38:14;14.20;;;10.50;;
31808;SDS011;18379;48.208;-1.518;2024-02-23T01:43:20;13.50;;;9.93;;
31808;SDS011;18379;48.208;-1.518;2024-02-23T01:48:21;11.33;;;10.17;;
31808;SDS011;18379;48.208;-1.518;2024-02-23T01:53:21;12.17;;;10.17;;
31808;SDS011;18379;48.208;-1.518;2024-02-23T01:58:22;11.83;;;10.07;;
31808;SDS011;18379;48.208;-1.518;2024-02-23T02:03:24;11.13;;;10.13;;
31808;SDS011;18379;48.208;-1.518;2024-02-23T02:08:28;14.03;;;10.50;;
31808;SDS011;18379;48.208;-1.518;2024-02-23T02:13:29;11.70;;;10.57;;
31808;SDS011;18379;48.208;-1.518;2024-02-23T02:18:30;13.00;;;9.80;;
31808;SDS011;18379;48.208;-1.518;2024-02-23T02:23:30;14.33;;;10.00;;
31808;SDS011;18379;48.208;-1.518;2024-02-23T02:28:31;15.70;;;10.30;;
31808;SDS011;18379;48.208;-1.518;2024-02-23T02:33:32;14.70;;;10.20;;
31808;SDS011;18379;48.208;-1.518;2024-02-23T02:38:33;11.27;;;10.33;;
31808;SDS011;18379;48.208;-1.518;2024-02-23T02:43:33;11.67;;;10.47;;
31808;SDS011;18379;48.208;-1.518;2024-02-23T02:48:34;11.67;;;10.13;;
31808;SDS011;18379;48.208;-1.518;2024-02-23T02:53:34;17.33;;;9.97;;
31808;SDS011;18379;48.208;-1.518;2024-02-23T02:58:35;10.77;;;9.87;;
31808;SDS011;18379;48.208;-1.518;2024-02-23T03:03:36;10.97;;;9.90;;
31808;SDS011;18379;48.208;-1.518;2024-02-23T03:08:36;11.17;;;10.00;;
31808;SDS011;18379;48.208;-1.518;2024-02-23T03:13:37;13.07;;;10.53;;
31808;SDS011;18379;48.208;-1.518;2024-02-23T03:18:37;12.97;;;9.90;;
31808;SDS011;18379;48.208;-1.518;2024-02-23T03:23:38;12.07;;;9.97;;
31808;SDS011;18379;48.208;-1.518;2024-02-23T03:28:39;12.27;;;10.17;;
31808;SDS011;18379;48.208;-1.518;2024-02-23T03:33:39;15.30;;;10.80;;
31808;SDS011;18379;48.208;-1.518;2024-02-23T03:38:40;12.23;;;10.30;;
31808;SDS011;18379;48.208;-1.518;2024-02-23T03:43:40;11.53;;;10.30;;
31808;SDS011;18379;48.208;-1.518;2024-02-23T03:48:41;10.90;;;9.80;;
31808;SDS011;18379;48.208;-1.518;2024-02-23T03:53:42;13.27;;;9.07;;
31808;SDS011;18379;48.208;-1.518;2024-02-23T03:58:43;11.60;;;9.10;;
31808;SDS011;18379;48.208;-1.518;2024-02-23T04:03:43;11.30;;;10.13;;
31808;SDS011;18379;48.208;-1.518;2024-02-23T04:08:44;10.17;;;9.17;;
31808;SDS011;18379;48.208;-1.518;2024-02-23T04:13:44;10.90;;;10.00;;
31808;SDS011;18379;48.208;-1.518;2024-02-23T04:18:45;10.23;;;9.30;;
31808;SDS011;18379;48.208;-1.518;2024-02-23T04:23:46;15.03;;;10.27;;
31808;SDS011;18379;48.208;-1.518;2024-02-23T04:28:47;10.23;;;9.30;;
31808;SDS011;18379;48.208;-1.518;2024-02-23T04:33:47;10.40;;;9.43;;
31808;SDS011;18379;48.208;-1.518;2024-02-23T04:38:48;12.07;;;10.30;;
31808;SDS011;18379;48.208;-1.518;2024-02-23T04:43:49;10.77;;;9.90;;
31808;SDS011;18379;48.208;-1.518;2024-02-23T04:48:49;11.20;;;10.10;;
31808;SDS011;18379;48.208;-1.518;2024-02-23T04:53:50;10.90;;;9.80;;
31808;SDS011;18379;48.208;-1.518;2024-02-23T04:58:51;10.87;;;9.77;;
31808;SDS011;18379;48.208;-1.518;2024-02-23T05:03:51;12.10;;;10.97;;
31808;SDS011;18379;48.208;-1.518;2024-02-23T05:08:52;11.33;;;10.37;;
31808;SDS011;18379;48.208;-1.518;2024-02-23T05:13:52;10.70;;;9.70;;
31808;SDS011;18379;48.208;-1.518;2024-02-23T05:18:53;10.77;;;9.93;;
31808;SDS011;18379;48.208;-1.518;2024-02-23T05:23:54;13.30;;;10.87;;
31808;SDS011;18379;48.208;-1.518;2024-02-23T05:28:54;11.97;;;10.73;;
31808;SDS011;18379;48.208;-1.518;2024-02-23T05:33:55;12.03;;;10.63;;
31808;SDS011;18379;48.208;-1.518;2024-02-23T05:38:55;11.43;;;10.30;;
31808;SDS011;18379;48.208;-1.518;2024-02-23T05:43:56;10.33;;;9.53;;
31808;SDS011;18379;48.208;-1.518;2024-02-23T05:48:57;10.73;;;9.73;;
31808;SDS011;18379;48.208;-1.518;2024-02-23T05:53:58;10.93;;;10.03;;
31808;SDS011;18379;48.208;-1.518;2024-02-23T05:58:58;11.43;;;10.33;;
31808;SDS011;18379;48.208;-1.518;2024-02-23T06:03:59;9.60;;;8.90;;
31808;SDS011;18379;48.208;-1.518;2024-02-23T06:09:00;10.10;;;9.20;;
31808;SDS011;18379;48.208;-1.518;2024-02-23T06:14:00;13.17;;;10.40;;
31808;SDS011;18379;48.208;-1.518;2024-02-23T06:19:01;9.53;;;8.83;;
31808;SDS011;18379;48.208;-1.518;2024-02-23T06:24:03;10.00;;;9.10;;
31808;SDS011;18379;48.208;-1.518;2024-02-23T06:29:04;10.23;;;9.40;;
31808;SDS011;18379;48.208;-1.518;2024-02-23T06:34:05;11.13;;;9.40;;
31808;SDS011;18379;48.208;-1.518;2024-02-23T06:39:06;10.60;;;9.63;;
31808;SDS011;18379;48.208;-1.518;2024-02-23T06:44:08;9.93;;;8.93;;
31808;SDS011;18379;48.208;-1.518;2024-02-23T06:49:09;10.70;;;9.70;;
31808;SDS011;18379;48.208;-1.518;2024-02-23T06:54:10;10.53;;;9.70;;
31808;SDS011;18379;48.208;-1.518;2024-02-23T06:59:10;11.13;;;10.07;;
31808;SDS011;18379;48.208;-1.518;2024-02-23T07:04:11;10.20;;;9.40;;
31808;SDS011;18379;48.208;-1.518;2024-02-23T07:09:11;9.30;;;8.83;;
31808;SDS011;18379;48.208;-1.518;2024-02-23T07:14:12;11.47;;;9.30;;
31808;SDS011;18379;48.208;-1.518;2024-02-23T07:19:14;10.87;;;9.83;;
31808;SDS011;18379;48.208;-1.518;2024-02-23T07:24:15;9.13;;;8.63;;
31808;SDS011;18379;48.208;-1.518;2024-02-23T07:29:15;11.50;;;10.33;;
31808;SDS011;18379;48.208;-1.518;2024-02-23T07:34:16;10.63;;;9.67;;
31808;SDS011;18379;48.208;-1.518;2024-02-23T07:39:16;10.90;;;9.70;;
31808;SDS011;18379;48.208;-1.518;2024-02-23T07:44:17;10.60;;;9.70;;
31808;SDS011;18379;48.208;-1.518;2024-02-23T07:49:18;9.90;;;9.03;;
31808;SDS011;18379;48.208;-1.518;2024-02-23T07:54:19;9.53;;;8.97;;
31808;SDS011;18379;48.208;-1.518;2024-02-23T07:59:20;11.00;;;9.93;;
31808;SDS011;18379;48.208;-1.518;2024-02-23T08:04:20;10.53;;;9.83;;
31808;SDS011;18379;48.208;-1.518;2024-02-23T08:09:21;10.47;;;9.67;;
31808;SDS011;18379;48.208;-1.518;2024-02-23T08:14:22;11.17;;;10.10;;
31808;SDS011;18379;48.208;-1.518;2024-02-23T08:19:23;10.73;;;9.83;;
31808;SDS011;18379;48.208;-1.518;2024-02-23T08:24:24;11.93;;;10.87;;
31808;SDS011;18379;48.208;-1.518;2024-02-23T08:29:26;11.23;;;10.03;;
31808;SDS011;18379;48.208;-1.518;2024-02-23T08:34:27;11.13;;;10.30;;
31808;SDS011;18379;48.208;-1.518;2024-02-23T08:39:28;10.27;;;9.50;;
31808;SDS011;18379;48.208;-1.518;2024-02-23T08:44:28;11.37;;;10.50;;
31808;SDS011;18379;48.208;-1.518;2024-02-23T08:49:29;11.17;;;10.27;;
31808;SDS011;18379;48.208;-1.518;2024-02-23T08:54:30;11.30;;;10.47;;
31808;SDS011;18379;48.208;-1.518;2024-02-23T08:59:30;11.43;;;10.40;;
31808;SDS011;18379;48.208;-1.518;2024-02-23T09:04:31;12.10;;;11.10;;
31808;SDS011;18379;48.208;-1.518;2024-02-23T09:09:32;11.30;;;10.60;;
31808;SDS011;18379;48.208;-1.518;2024-02-23T09:14:32;11.43;;;10.50;;
31808;SDS011;18379;48.208;-1.518;2024-02-23T09:19:35;11.37;;;10.57;;
31808;SDS011;18379;48.208;-1.518;2024-02-23T09:24:40;11.90;;;10.80;;
31808;SDS011;18379;48.208;-1.518;2024-02-23T09:29:41;11.70;;;10.90;;
31808;SDS011;18379;48.208;-1.518;2024-02-23T09:34:42;11.20;;;10.43;;
31808;SDS011;18379;48.208;-1.518;2024-02-23T09:39:42;11.77;;;11.00;;
31808;SDS011;18379;48.208;-1.518;2024-02-23T09:44:43;11.30;;;10.70;;
31808;SDS011;18379;48.208;-1.518;2024-02-23T09:49:46;11.60;;;10.90;;
31808;SDS011;18379;48.208;-1.518;2024-02-23T09:54:50;12.17;;;11.27;;
31808;SDS011;18379;48.208;-1.518;2024-02-23T09:59:51;12.50;;;11.30;;
31808;SDS011;18379;48.208;-1.518;2024-02-23T10:04:51;12.00;;;10.93;;
31808;SDS011;18379;48.208;-1.518;2024-02-23T10:09:56;13.37;;;12.10;;
31808;SDS011;18379;48.208;-1.518;2024-02-23T10:14:56;12.57;;;11.43;;
31808;SDS011;18379;48.208;-1.518;2024-02-23T10:19:57;26.63;;;18.13;;
31808;SDS011;18379;48.208;-1.518;2024-02-23T10:24:59;14.83;;;13.63;;
31808;SDS011;18379;48.208;-1.518;2024-02-23T10:29:59;12.80;;;11.80;;
31808;SDS011;18379;48.208;-1.518;2024-02-23T10:35:00;15.03;;;13.63;;
31808;SDS011;18379;48.208;-1.518;2024-02-23T10:40:05;13.63;;;12.40;;
31808;SDS011;18379;48.208;-1.518;2024-02-23T10:45:09;14.83;;;12.97;;
31808;SDS011;18379;48.208;-1.518;2024-02-23T10:50:10;13.13;;;12.03;;
31808;SDS011;18379;48.208;-1.518;2024-02-23T10:55:14;27.60;;;17.97;;
31808;SDS011;18379;48.208;-1.518;2024-02-23T11:00:15;13.20;;;12.10;;
31808;SDS011;18379;48.208;-1.518;2024-02-23T11:05:18;16.63;;;14.27;;
31808;SDS011;18379;48.208;-1.518;2024-02-23T11:10:21;15.67;;;14.13;;
31808;SDS011;18379;48.208;-1.518;2024-02-23T11:15:28;14.20;;;13.00;;
31808;SDS011;18379;48.208;-1.518;2024-02-23T11:20:34;41.83;;;19.10;;
31808;SDS011;18379;48.208;-1.518;2024-02-23T11:25:35;17.80;;;15.33;;
31808;SDS011;18379;48.208;-1.518;2024-02-23T11:30:35;15.53;;;14.20;;
31808;SDS011;18379;48.208;-1.518;2024-02-23T11:35:36;14.53;;;13.07;;
31808;SDS011;18379;48.208;-1.518;2024-02-23T11:40:49;13.77;;;12.77;;
31808;SDS011;18379;48.208;-1.518;2024-02-23T11:45:52;16.27;;;14.37;;
31808;SDS011;18379;48.208;-1.518;2024-02-23T11:50:53;15.10;;;13.83;;
31808;SDS011;18379;48.208;-1.518;2024-02-23T11:55:54;14.63;;;13.53;;
31808;SDS011;18379;48.208;-1.518;2024-02-23T12:00:54;14.63;;;13.17;;
31808;SDS011;18379;48.208;-1.518;2024-02-23T12:05:56;14.77;;;13.47;;
31808;SDS011;18379;48.208;-1.518;2024-02-23T12:10:58;14.53;;;13.57;;
31808;SDS011;18379;48.208;-1.518;2024-02-23T12:16:00;13.57;;;12.63;;
31808;SDS011;18379;48.208;-1.518;2024-02-23T12:21:01;17.30;;;15.70;;
31808;SDS011;18379;48.208;-1.518;2024-02-23T12:26:04;14.80;;;13.73;;
31808;SDS011;18379;48.208;-1.518;2024-02-23T12:31:05;14.77;;;13.77;;
31808;SDS011;18379;48.208;-1.518;2024-02-23T12:36:06;14.70;;;13.30;;
31808;SDS011;18379;48.208;-1.518;2024-02-23T12:41:08;14.90;;;13.70;;
31808;SDS011;18379;48.208;-1.518;2024-02-23T12:46:09;22.57;;;16.87;;
31808;SDS011;18379;48.208;-1.518;2024-02-23T12:51:13;15.67;;;14.67;;
31808;SDS011;18379;48.208;-1.518;2024-02-23T12:56:13;14.53;;;13.43;;
31808;SDS011;18379;48.208;-1.518;2024-02-23T13:01:16;15.60;;;14.40;;
31808;SDS011;18379;48.208;-1.518;2024-02-23T13:06:16;15.13;;;14.17;;
31808;SDS011;18379;48.208;-1.518;2024-02-23T13:11:17;16.10;;;15.00;;
31808;SDS011;18379;48.208;-1.518;2024-02-23T13:16:18;14.57;;;13.63;;
31808;SDS011;18379;48.208;-1.518;2024-02-23T13:21:19;15.67;;;14.23;;
31808;SDS011;18379;48.208;-1.518;2024-02-23T13:26:20;15.77;;;14.60;;
31808;SDS011;18379;48.208;-1.518;2024-02-23T13:31:20;16.97;;;15.87;;
31808;SDS011;18379;48.208;-1.518;2024-02-23T13:36:21;16.13;;;14.83;;
31808;SDS011;18379;48.208;-1.518;2024-02-23T13:41:22;15.30;;;14.27;;
31808;SDS011;18379;48.208;-1.518;2024-02-23T13:46:22;18.17;;;16.43;;
31808;SDS011;18379;48.208;-1.518;2024-02-23T13:51:23;18.17;;;16.40;;
31808;SDS011;18379;48.208;-1.518;2024-02-23T13:56:24;18.07;;;16.47;;
31808;SDS011;18379;48.208;-1.518;2024-02-23T14:01:24;15.33;;;13.70;;
31808;SDS011;18379;48.208;-1.518;2024-02-23T14:06:25;15.43;;;14.37;;
31808;SDS011;18379;48.208;-1.518;2024-02-23T14:11:26;15.57;;;14.00;;
31808;SDS011;18379;48.208;-1.518;2024-02-23T14:16:26;24.67;;;17.17;;
31808;SDS011;18379;48.208;-1.518;2024-02-23T14:21:27;16.27;;;14.70;;
31808;SDS011;18379;48.208;-1.518;2024-02-23T14:26:28;14.00;;;12.70;;
31808;SDS011;18379;48.208;-1.518;2024-02-23T14:31:29;18.03;;;15.50;;
31808;SDS011;18379;48.208;-1.518;2024-02-23T14:36:30;15.23;;;13.67;;
31808;SDS011;18379;48.208;-1.518;2024-02-23T14:41:34;14.07;;;12.80;;
31808;SDS011;18379;48.208;-1.518;2024-02-23T14:46:34;13.00;;;12.30;;
31808;SDS011;18379;48.208;-1.518;2024-02-23T14:51:35;17.10;;;15.50;;
31808;SDS011;18379;48.208;-1.518;2024-02-23T14:56:37;17.97;;;16.20;;
31808;SDS011;18379;48.208;-1.518;2024-02-23T15:01:37;14.97;;;13.57;;
31808;SDS011;18379;48.208;-1.518;2024-02-23T15:06:41;15.40;;;13.90;;
31808;SDS011;18379;48.208;-1.518;2024-02-23T15:11:42;14.53;;;13.43;;
31808;SDS011;18379;48.208;-1.518;2024-02-23T15:16:43;13.70;;;12.80;;
31808;SDS011;18379;48.208;-1.518;2024-02-23T15:21:45;15.43;;;14.33;;
31808;SDS011;18379;48.208;-1.518;2024-02-23T15:26:46;13.07;;;12.13;;
31808;SDS011;18379;48.208;-1.518;2024-02-23T15:31:47;13.77;;;12.77;;
31808;SDS011;18379;48.208;-1.518;2024-02-23T15:36:48;12.63;;;11.83;;
31808;SDS011;18379;48.208;-1.518;2024-02-23T15:41:49;12.60;;;11.80;;
31808;SDS011;18379;48.208;-1.518;2024-02-23T15:46:50;12.33;;;11.60;;
31808;SDS011;18379;48.208;-1.518;2024-02-23T15:51:51;12.90;;;12.10;;
31808;SDS011;18379;48.208;-1.518;2024-02-23T15:56:51;11.33;;;10.73;;
31808;SDS011;18379;48.208;-1.518;2024-02-23T16:01:52;11.20;;;10.50;;
31808;SDS011;18379;48.208;-1.518;2024-02-23T16:06:52;11.20;;;10.60;;
31808;SDS011;18379;48.208;-1.518;2024-02-23T16:11:53;79.27;;;44.87;;
31808;SDS011;18379;48.208;-1.518;2024-02-23T16:16:54;11.10;;;10.40;;
31808;SDS011;18379;48.208;-1.518;2024-02-23T16:21:55;11.47;;;10.77;;
31808;SDS011;18379;48.208;-1.518;2024-02-23T16:26:55;13.47;;;12.27;;
31808;SDS011;18379;48.208;-1.518;2024-02-23T16:31:56;10.80;;;10.20;;
31808;SDS011;18379;48.208;-1.518;2024-02-23T16:36:57;15.17;;;13.73;;
31808;SDS011;18379;48.208;-1.518;2024-02-23T16:41:58;11.70;;;11.10;;
31808;SDS011;18379;48.208;-1.518;2024-02-23T16:46:59;20.60;;;17.23;;
31808;SDS011;18379;48.208;-1.518;2024-02-23T16:52:00;12.13;;;11.43;;
31808;SDS011;18379;48.208;-1.518;2024-02-23T16:57:00;12.87;;;11.93;;
31808;SDS011;18379;48.208;-1.518;2024-02-23T17:02:01;12.50;;;11.70;;
31808;SDS011;18379;48.208;-1.518;2024-02-23T17:07:01;17.20;;;15.67;;
31808;SDS011;18379;48.208;-1.518;2024-02-23T17:12:02;15.53;;;14.23;;
31808;SDS011;18379;48.208;-1.518;2024-02-23T17:17:03;15.33;;;13.93;;
31808;SDS011;18379;48.208;-1.518;2024-02-23T17:22:04;19.60;;;16.53;;
31808;SDS011;18379;48.208;-1.518;2024-02-23T17:27:05;16.17;;;14.43;;
31808;SDS011;18379;48.208;-1.518;2024-02-23T17:32:06;20.77;;;16.40;;
31808;SDS011;18379;48.208;-1.518;2024-02-23T17:37:07;25.73;;;18.90;;
31808;SDS011;18379;48.208;-1.518;2024-02-23T17:42:09;30.73;;;18.77;;
31808;SDS011;18379;48.208;-1.518;2024-02-23T17:47:10;31.23;;;19.37;;
31808;SDS011;18379;48.208;-1.518;2024-02-23T17:52:10;20.30;;;16.60;;
31808;SDS011;18379;48.208;-1.518;2024-02-23T17:57:11;17.17;;;14.93;;
31808;SDS011;18379;48.208;-1.518;2024-02-23T18:02:12;16.20;;;14.70;;
31808;SDS011;18379;48.208;-1.518;2024-02-23T18:07:14;24.03;;;16.47;;
31808;SDS011;18379;48.208;-1.518;2024-02-23T18:12:16;14.97;;;13.47;;
31808;SDS011;18379;48.208;-1.518;2024-02-23T18:17:17;17.30;;;15.60;;
31808;SDS011;18379;48.208;-1.518;2024-02-23T18:22:17;20.73;;;16.17;;
31808;SDS011;18379;48.208;-1.518;2024-02-23T18:27:21;29.57;;;21.17;;
31808;SDS011;18379;48.208;-1.518;2024-02-23T18:32:28;48.87;;;25.37;;
31808;SDS011;18379;48.208;-1.518;2024-02-23T18:37:28;58.63;;;28.27;;
31808;SDS011;18379;48.208;-1.518;2024-02-23T18:42:30;76.20;;;35.17;;
31808;SDS011;18379;48.208;-1.518;2024-02-23T18:47:31;58.13;;;29.53;;
31808;SDS011;18379;48.208;-1.518;2024-02-23T18:52:31;85.37;;;36.00;;
31808;SDS011;18379;48.208;-1.518;2024-02-23T18:57:32;87.27;;;36.20;;
31808;SDS011;18379;48.208;-1.518;2024-02-23T19:02:33;83.30;;;39.17;;
31808;SDS011;18379;48.208;-1.518;2024-02-23T19:07:35;84.83;;;40.87;;
31808;SDS011;18379;48.208;-1.518;2024-02-23T19:12:36;72.43;;;36.73;;
31808;SDS011;18379;48.208;-1.518;2024-02-23T19:17:39;62.30;;;32.30;;
31808;SDS011;18379;48.208;-1.518;2024-02-23T19:22:40;59.60;;;28.47;;
31808;SDS011;18379;48.208;-1.518;2024-02-23T19:27:41;66.80;;;29.27;;
31808;SDS011;18379;48.208;-1.518;2024-02-23T19:32:42;70.97;;;29.07;;
31808;SDS011;18379;48.208;-1.518;2024-02-23T19:37:42;57.70;;;28.20;;
31808;SDS011;18379;48.208;-1.518;2024-02-23T19:42:43;61.67;;;29.03;;
31808;SDS011;18379;48.208;-1.518;2024-02-23T19:47:44;72.77;;;32.57;;
31808;SDS011;18379;48.208;-1.518;2024-02-23T19:52:44;51.70;;;25.97;;
31808;SDS011;18379;48.208;-1.518;2024-02-23T19:57:45;47.00;;;23.87;;
31808;SDS011;18379;48.208;-1.518;2024-02-23T20:02:46;36.87;;;22.23;;
31808;SDS011;18379;48.208;-1.518;2024-02-23T20:07:46;43.30;;;23.37;;
31808;SDS011;18379;48.208;-1.518;2024-02-23T20:12:47;35.77;;;20.97;;
31808;SDS011;18379;48.208;-1.518;2024-02-23T20:17:49;20.60;;;14.20;;
31808;SDS011;18379;48.208;-1.518;2024-02-23T20:22:50;43.67;;;22.00;;
31808;SDS011;18379;48.208;-1.518;2024-02-23T20:27:51;25.37;;;16.90;;
31808;SDS011;18379;48.208;-1.518;2024-02-23T20:32:51;23.20;;;17.30;;
31808;SDS011;18379;48.208;-1.518;2024-02-23T20:37:52;20.23;;;16.27;;
31808;SDS011;18379;48.208;-1.518;2024-02-23T20:42:53;20.40;;;14.80;;
31808;SDS011;18379;48.208;-1.518;2024-02-23T20:47:53;14.93;;;13.20;;
31808;SDS011;18379;48.208;-1.518;2024-02-23T20:52:54;21.60;;;15.53;;
31808;SDS011;18379;48.208;-1.518;2024-02-23T20:57:54;17.07;;;14.20;;
31808;SDS011;18379;48.208;-1.518;2024-02-23T21:02:55;31.50;;;17.97;;
31808;SDS011;18379;48.208;-1.518;2024-02-23T21:07:56;18.00;;;14.43;;
31808;SDS011;18379;48.208;-1.518;2024-02-23T21:12:56;26.37;;;16.93;;
31808;SDS011;18379;48.208;-1.518;2024-02-23T21:17:57;20.47;;;14.23;;
31808;SDS011;18379;48.208;-1.518;2024-02-23T21:22:58;14.23;;;11.43;;
31808;SDS011;18379;48.208;-1.518;2024-02-23T21:27:58;21.70;;;15.60;;
31808;SDS011;18379;48.208;-1.518;2024-02-23T21:32:59;20.80;;;15.33;;
31808;SDS011;18379;48.208;-1.518;2024-02-23T21:37:59;13.43;;;12.13;;
31808;SDS011;18379;48.208;-1.518;2024-02-23T21:43:01;16.97;;;12.80;;
31808;SDS011;18379;48.208;-1.518;2024-02-23T21:48:02;26.63;;;18.63;;
31808;SDS011;18379;48.208;-1.518;2024-02-23T21:53:03;23.33;;;15.33;;
31808;SDS011;18379;48.208;-1.518;2024-02-23T21:58:04;26.80;;;17.03;;
31808;SDS011;18379;48.208;-1.518;2024-02-23T22:03:04;19.90;;;14.40;;
31808;SDS011;18379;48.208;-1.518;2024-02-23T22:08:06;11.37;;;9.80;;
31808;SDS011;18379;48.208;-1.518;2024-02-23T22:13:06;15.33;;;11.10;;
31808;SDS011;18379;48.208;-1.518;2024-02-23T22:18:07;12.63;;;11.53;;
31808;SDS011;18379;48.208;-1.518;2024-02-23T22:23:08;15.60;;;13.57;;
31808;SDS011;18379;48.208;-1.518;2024-02-23T22:28:11;13.37;;;11.77;;
31808;SDS011;18379;48.208;-1.518;2024-02-23T22:33:12;14.00;;;11.33;;
31808;SDS011;18379;48.208;-1.518;2024-02-23T22:38:12;15.00;;;10.97;;
31808;SDS011;18379;48.208;-1.518;2024-02-23T22:43:14;17.47;;;13.07;;
31808;SDS011;18379;48.208;-1.518;2024-02-23T22:48:14;16.87;;;11.67;;
31808;SDS011;18379;48.208;-1.518;2024-02-23T22:53:15;21.23;;;13.83;;
31808;SDS011;18379;48.208;-1.518;2024-02-23T22:58:16;16.67;;;11.63;;
31808;SDS011;18379;48.208;-1.518;2024-02-23T23:03:17;18.93;;;11.07;;
31808;SDS011;18379;48.208;-1.518;2024-02-23T23:08:18;11.47;;;10.27;;
31808;SDS011;18379;48.208;-1.518;2024-02-23T23:13:18;17.00;;;12.40;;
31808;SDS011;18379;48.208;-1.518;2024-02-23T23:18:19;11.63;;;10.47;;
31808;SDS011;18379;48.208;-1.518;2024-02-23T23:23:19;11.03;;;10.10;;
31808;SDS011;18379;48.208;-1.518;2024-02-23T23:28:20;14.87;;;10.50;;
31808;SDS011;18379;48.208;-1.518;2024-02-23T23:33:21;10.83;;;9.67;;
31808;SDS011;18379;48.208;-1.518;2024-02-23T23:38:22;11.87;;;10.60;;
31808;SDS011;18379;48.208;-1.518;2024-02-23T23:43:22;13.43;;;10.70;;
31808;SDS011;18379;48.208;-1.518;2024-02-23T23:48:23;13.73;;;10.90;;
31808;SDS011;18379;48.208;-1.518;2024-02-23T23:53:23;11.60;;;10.37;;
31808;SDS011;18379;48.208;-1.518;2024-02-23T23:58:24;13.07;;;9.70;;
